Terminal Aerodrome Forecast
Issued by NWS

Home | Current Version | Previous Version | Text Only | Print | Product List | Glossary On
Versions: 1 2 3 4 5 6 7 8 9 10 11 12 13 14 15 16 17 18 19 20 21 22 23 24
000
FTUS43 KAPX 232338
TAFAPN
TAF
KAPN 232338Z 2400/2424 34005KT P6SM BKN024 BKN150
     FM240400 35004KT P6SM OVC090
     FM240800 03004KT P6SM -SN OVC015
     FM241000 05006KT 2SM -RASN OVC010
     FM241300 07012G20KT 1 1/2SM -RASN OVC010
     FM241700 07014G22KT 2SM -RA OVC015=

USA.gov is the U.S. government's official web portal to all federal, state and local government web resources and services.